createdAt,value
2022-10-06T00:00:00.824Z,4.53
2022-10-06T00:02:47.365Z,4.57
2022-10-06T00:05:34.406Z,5.03
2022-10-06T00:08:21.276Z,4.97
2022-10-06T00:11:09.152Z,4.57
2022-10-06T00:13:56.179Z,4.77
2022-10-06T00:16:44.529Z,4.17
2022-10-06T00:19:31.512Z,4.33
2022-10-06T00:22:18.932Z,4.27
2022-10-06T00:25:06.061Z,4.50
2022-10-06T00:27:53.543Z,4.20
2022-10-06T00:30:40.807Z,4.47
2022-10-06T00:33:28.880Z,4.90
2022-10-06T00:36:15.885Z,4.93
2022-10-06T00:39:03.159Z,4.63
2022-10-06T00:41:49.780Z,4.90
2022-10-06T00:44:36.467Z,5.00
2022-10-06T00:47:25.686Z,4.53
2022-10-06T00:50:14.617Z,4.37
2022-10-06T00:53:01.622Z,4.73
2022-10-06T00:55:48.394Z,4.27
2022-10-06T00:58:35.580Z,6.53
2022-10-06T01:01:22.698Z,4.67
2022-10-06T01:04:12.774Z,4.50
2022-10-06T01:07:01.959Z,5.10
2022-10-06T01:09:48.884Z,5.10
2022-10-06T01:12:36.369Z,5.33
2022-10-06T01:15:23.850Z,5.33
2022-10-06T01:18:13.804Z,5.23
2022-10-06T01:21:05.200Z,4.60
2022-10-06T01:23:54.153Z,4.23
2022-10-06T01:26:45.770Z,4.40
2022-10-06T01:29:34.105Z,4.90
2022-10-06T01:32:21.424Z,4.17
2022-10-06T01:35:09.454Z,4.53
2022-10-06T01:37:58.795Z,4.30
2022-10-06T01:40:48.080Z,4.07
2022-10-06T01:43:35.934Z,4.57
2022-10-06T01:46:25.044Z,5.40
2022-10-06T01:49:12.142Z,4.47
2022-10-06T01:51:59.178Z,4.30
2022-10-06T01:54:46.163Z,4.80
2022-10-06T01:57:38.724Z,4.63
2022-10-06T02:00:26.388Z,5.00
2022-10-06T02:03:13.463Z,5.43
2022-10-06T02:06:02.076Z,4.90
2022-10-06T02:08:49.154Z,5.07
2022-10-06T02:11:37.188Z,4.90
2022-10-06T02:14:25.809Z,4.87
2022-10-06T02:17:14.069Z,5.20
2022-10-06T02:20:00.765Z,5.10
2022-10-06T02:22:47.667Z,4.93
2022-10-06T02:25:35.206Z,4.87
2022-10-06T02:28:22.393Z,4.87
2022-10-06T02:31:11.148Z,4.87
2022-10-06T02:33:59.912Z,4.40
2022-10-06T02:36:47.234Z,4.80
2022-10-06T02:39:34.462Z,4.97
2022-10-06T02:42:21.720Z,5.10
2022-10-06T02:45:09.269Z,4.30
2022-10-06T02:47:58.180Z,4.87
2022-10-06T02:50:45.667Z,4.10
2022-10-06T02:53:32.694Z,4.53
2022-10-06T02:56:22.011Z,3.77
2022-10-06T02:59:09.237Z,4.70
2022-10-06T03:01:57.266Z,5.10
2022-10-06T03:04:45.128Z,5.07
2022-10-06T03:07:32.316Z,4.33
2022-10-06T03:10:19.433Z,3.93
2022-10-06T03:13:06.278Z,4.43
2022-10-06T03:15:53.447Z,4.57
2022-10-06T03:18:40.439Z,4.67
2022-10-06T03:21:30.463Z,3.90
2022-10-06T03:24:17.793Z,3.97
2022-10-06T03:27:09.282Z,4.40
2022-10-06T03:29:56.257Z,4.40
2022-10-06T03:32:45.807Z,4.70
2022-10-06T03:35:32.696Z,4.07
2022-10-06T03:38:20.720Z,4.67
2022-10-06T03:41:08.908Z,4.13
2022-10-06T03:43:56.841Z,4.17
2022-10-06T03:47:02.690Z,4.40
2022-10-06T03:49:51.149Z,3.97
2022-10-06T03:52:38.115Z,4.10
2022-10-06T03:55:26.319Z,4.17
2022-10-06T03:58:13.656Z,4.33
2022-10-06T04:01:02.163Z,4.47
2022-10-06T04:03:49.701Z,5.97
2022-10-06T04:06:38.407Z,5.57
2022-10-06T04:09:27.619Z,4.13
2022-10-06T04:12:15.897Z,4.37
2022-10-06T04:15:03.834Z,4.33
2022-10-06T04:17:50.921Z,5.03
2022-10-06T04:20:38.013Z,3.93
2022-10-06T04:23:25.035Z,4.27
2022-10-06T04:26:13.646Z,8.03
2022-10-06T04:29:03.944Z,6.77
2022-10-06T04:31:51.412Z,4.53
2022-10-06T04:34:43.695Z,4.20
2022-10-06T04:37:30.770Z,3.80
2022-10-06T04:40:18.530Z,4.33
2022-10-06T04:43:05.926Z,4.70
2022-10-06T04:46:13.078Z,4.23
2022-10-06T04:49:08.625Z,3.47
2022-10-06T04:51:55.778Z,4.23
2022-10-06T04:54:43.236Z,3.57
2022-10-06T04:57:30.306Z,4.07
2022-10-06T05:00:26.774Z,3.93
2022-10-06T05:03:16.919Z,4.23
2022-10-06T05:06:05.720Z,3.63
2022-10-06T05:08:54.997Z,4.10
2022-10-06T05:11:42.208Z,3.97
2022-10-06T05:14:33.325Z,3.50
2022-10-06T05:17:39.188Z,4.10
2022-10-06T05:20:28.136Z,3.93
2022-10-06T05:23:15.734Z,5.03
2022-10-06T05:26:03.405Z,3.90
2022-10-06T05:28:50.756Z,4.07
2022-10-06T05:31:40.369Z,4.30
2022-10-06T05:34:27.420Z,6.10
2022-10-06T05:37:15.696Z,7.53
2022-10-06T05:40:03.791Z,4.50
2022-10-06T05:42:50.887Z,4.50
2022-10-06T05:45:38.006Z,4.73
2022-10-06T05:48:25.373Z,4.60
2022-10-06T05:51:12.637Z,4.10
2022-10-06T05:54:01.230Z,5.07
2022-10-06T05:56:48.820Z,6.07
2022-10-06T05:59:36.163Z,5.93
2022-10-06T06:02:24.497Z,5.63
2022-10-06T06:05:11.511Z,6.57
2022-10-06T06:07:58.259Z,6.43
2022-10-06T06:10:46.521Z,5.50
2022-10-06T06:13:33.825Z,4.83
2022-10-06T06:16:40.785Z,5.77
2022-10-06T06:19:29.274Z,4.57
2022-10-06T06:22:16.830Z,4.87
2022-10-06T06:25:06.109Z,5.50
2022-10-06T06:27:56.266Z,4.90
2022-10-06T06:30:43.419Z,4.50
2022-10-06T06:33:30.638Z,4.17
2022-10-06T06:36:19.050Z,4.93
2022-10-06T06:39:07.197Z,3.43
2022-10-06T06:41:54.931Z,4.10
2022-10-06T06:45:12.443Z,4.10
2022-10-06T06:48:15.643Z,4.00
2022-10-06T06:51:03.741Z,4.93
2022-10-06T06:53:52.235Z,5.97
2022-10-06T06:56:40.172Z,5.03
2022-10-06T06:59:32.975Z,6.50
2022-10-06T07:02:24.253Z,5.03
2022-10-06T07:05:11.716Z,4.63
2022-10-06T07:07:59.535Z,5.20
2022-10-06T07:10:48.529Z,5.53
2022-10-06T07:13:36.022Z,5.40
2022-10-06T07:16:41.453Z,5.40
2022-10-06T07:19:46.390Z,4.93
2022-10-06T07:22:52.093Z,4.77
2022-10-06T07:25:39.284Z,4.97
2022-10-06T07:28:30.578Z,5.60
2022-10-06T07:31:19.129Z,5.47
2022-10-06T07:34:08.299Z,5.73
2022-10-06T07:36:56.668Z,5.60
2022-10-06T07:39:44.869Z,5.37
2022-10-06T07:42:47.804Z,3.27
2022-10-06T07:45:46.371Z,3.20
2022-10-06T07:48:53.701Z,3.00
2022-10-06T07:51:41.487Z,2.90
2022-10-06T07:54:30.391Z,2.97
2022-10-06T07:57:37.721Z,2.20
2022-10-06T08:00:27.143Z,2.73
2022-10-06T08:03:18.063Z,2.27
2022-10-06T08:06:05.577Z,2.33
2022-10-06T08:08:53.663Z,2.13
2022-10-06T08:11:41.787Z,2.00
2022-10-06T08:14:31.391Z,2.10
2022-10-06T08:17:18.143Z,2.40
2022-10-06T08:20:05.596Z,2.17
2022-10-06T08:22:52.773Z,2.30
2022-10-06T08:25:58.793Z,2.43
2022-10-06T08:28:48.261Z,2.27
2022-10-06T08:31:35.163Z,2.40
2022-10-06T08:34:22.667Z,2.13
2022-10-06T08:37:19.900Z,2.00
2022-10-06T08:40:08.377Z,2.67
2022-10-06T08:42:58.848Z,2.30
2022-10-06T08:45:48.594Z,1.60
2022-10-06T08:48:38.729Z,1.93
2022-10-06T08:51:47.209Z,2.33
2022-10-06T08:54:41.506Z,2.00
2022-10-06T08:57:35.428Z,1.97
2022-10-06T09:00:22.774Z,2.17
2022-10-06T09:03:23.073Z,1.70
2022-10-06T09:06:16.615Z,2.10
2022-10-06T09:09:14.994Z,1.97
2022-10-06T09:12:15.232Z,2.30
2022-10-06T09:15:30.069Z,2.40
2022-10-06T09:18:23.205Z,2.10
2022-10-06T09:21:16.104Z,1.80
2022-10-06T09:24:08.655Z,2.17
2022-10-06T09:26:58.993Z,1.80
2022-10-06T09:29:48.569Z,1.57
2022-10-06T09:32:35.521Z,1.73
2022-10-06T09:35:26.109Z,1.50
2022-10-06T09:38:13.140Z,1.63
2022-10-06T09:41:00.148Z,1.90
2022-10-06T09:43:59.460Z,2.60
2022-10-06T09:46:46.267Z,1.90
2022-10-06T09:49:33.887Z,1.97
2022-10-06T09:52:22.149Z,1.63
2022-10-06T09:55:13.378Z,1.63
2022-10-06T09:58:01.908Z,1.43
2022-10-06T10:00:52.771Z,1.67
2022-10-06T10:04:02.016Z,1.90
2022-10-06T10:06:53.873Z,1.93
2022-10-06T10:09:42.840Z,2.17
2022-10-06T10:12:31.127Z,1.80
2022-10-06T10:15:31.559Z,1.70
2022-10-06T10:18:18.731Z,2.27
2022-10-06T10:21:08.438Z,1.97
2022-10-06T10:23:57.163Z,1.57
2022-10-06T10:26:53.621Z,1.57
2022-10-06T10:30:01.749Z,2.33
2022-10-06T10:33:01.757Z,1.97
2022-10-06T10:35:54.037Z,1.80
2022-10-06T10:38:42.716Z,1.73
2022-10-06T10:41:35.725Z,1.67
2022-10-06T10:44:32.713Z,2.20
2022-10-06T10:47:26.749Z,1.40
2022-10-06T10:50:26.251Z,1.57
2022-10-06T10:56:07.378Z,1.37
2022-10-06T10:59:16.074Z,1.70
2022-10-06T11:02:10.669Z,1.60
2022-10-06T11:05:02.457Z,1.47
2022-10-06T11:07:55.835Z,1.33
2022-10-06T11:10:47.690Z,1.63
2022-10-06T11:13:40.274Z,1.20
2022-10-06T11:16:42.378Z,1.70
2022-10-06T11:19:43.565Z,1.50
2022-10-06T11:22:42.490Z,1.37
2022-10-06T11:25:37.132Z,1.87
2022-10-06T11:28:26.117Z,1.90
2022-10-06T11:31:21.980Z,1.40
2022-10-06T11:34:11.773Z,1.70
2022-10-06T11:37:06.655Z,1.60
2022-10-06T11:39:57.185Z,1.70
2022-10-06T11:42:47.855Z,1.73
2022-10-06T11:45:44.941Z,1.80
2022-10-06T11:48:33.454Z,1.30
2022-10-06T11:51:30.424Z,1.87
2022-10-06T11:54:32.141Z,1.90
2022-10-06T11:57:33.538Z,1.60
2022-10-06T12:00:42.199Z,1.13
2022-10-06T12:03:56.127Z,1.40
2022-10-06T12:07:07.505Z,2.17
2022-10-06T12:10:15.920Z,1.77
2022-10-06T12:13:31.746Z,1.40
2022-10-06T12:19:39.001Z,1.70
2022-10-06T12:22:28.241Z,1.90
2022-10-06T12:25:21.698Z,1.83
2022-10-06T12:28:15.011Z,1.30
2022-10-06T12:31:08.040Z,1.43
2022-10-06T12:33:55.267Z,1.87
2022-10-06T12:36:44.968Z,1.80
2022-10-06T12:39:32.472Z,1.50
2022-10-06T12:42:21.827Z,2.00
2022-10-06T12:45:16.801Z,1.93
2022-10-06T12:48:04.463Z,1.80
2022-10-06T12:50:53.526Z,1.73
2022-10-06T12:53:43.431Z,1.60
2022-10-06T12:56:32.516Z,1.53
2022-10-06T12:59:21.835Z,1.80
2022-10-06T13:02:10.759Z,1.77
2022-10-06T13:05:01.113Z,2.03
2022-10-06T13:07:58.957Z,1.83
2022-10-06T13:10:46.011Z,2.10
2022-10-06T13:13:36.099Z,2.50
2022-10-06T13:16:27.701Z,2.17
2022-10-06T13:19:18.144Z,1.87
2022-10-06T13:22:05.949Z,1.70
2022-10-06T13:25:01.045Z,2.30
2022-10-06T13:27:50.876Z,2.40
2022-10-06T13:30:39.017Z,1.87
2022-10-06T13:33:28.943Z,2.17
2022-10-06T13:36:16.539Z,2.77
2022-10-06T13:39:05.605Z,2.03
2022-10-06T13:41:54.939Z,1.87
2022-10-06T13:44:43.542Z,1.70
2022-10-06T13:47:32.205Z,1.87
2022-10-06T13:50:21.344Z,2.17
2022-10-06T13:53:23.488Z,1.80
2022-10-06T13:59:34.682Z,2.00
2022-10-06T14:02:25.421Z,1.77
2022-10-06T14:05:26.431Z,2.07
2022-10-06T14:08:19.978Z,1.90
2022-10-06T14:11:08.850Z,2.23
2022-10-06T14:13:59.043Z,2.37
2022-10-06T14:16:49.126Z,2.00
2022-10-06T14:19:38.807Z,2.20
2022-10-06T14:22:35.199Z,1.90
2022-10-06T14:25:22.907Z,1.90
2022-10-06T14:28:10.182Z,1.87
2022-10-06T14:30:57.605Z,1.50
2022-10-06T14:33:44.997Z,1.47
2022-10-06T14:36:34.399Z,2.23
2022-10-06T14:39:23.072Z,4.87
2022-10-06T14:42:10.433Z,1.53
2022-10-06T14:44:58.059Z,2.20
2022-10-06T14:47:46.385Z,2.00
2022-10-06T14:50:35.840Z,2.40
2022-10-06T14:53:22.957Z,1.80
2022-10-06T14:56:14.434Z,1.87
2022-10-06T14:59:03.941Z,2.00
2022-10-06T15:01:50.870Z,2.30
2022-10-06T15:04:38.333Z,1.60
2022-10-06T15:07:43.323Z,2.00
2022-10-06T15:10:30.774Z,1.60
2022-10-06T15:13:19.511Z,2.47
2022-10-06T15:16:06.924Z,2.00
2022-10-06T15:18:53.771Z,2.43
2022-10-06T15:21:41.983Z,1.67
2022-10-06T15:24:29.025Z,2.00
2022-10-06T15:27:34.001Z,1.83
2022-10-06T15:30:23.073Z,2.47
2022-10-06T15:33:10.103Z,2.03
2022-10-06T15:36:05.290Z,2.33
2022-10-06T15:38:52.459Z,2.00
2022-10-06T15:41:41.119Z,1.60
2022-10-06T15:44:28.383Z,2.63
2022-10-06T15:47:17.182Z,2.10
2022-10-06T15:50:04.559Z,1.60
2022-10-06T15:55:58.959Z,1.93
2022-10-06T15:58:46.629Z,1.73
2022-10-06T16:01:43.158Z,1.80
2022-10-06T16:04:45.789Z,2.07
2022-10-06T16:07:32.682Z,1.50
2022-10-06T16:10:19.754Z,1.60
2022-10-06T16:13:07.046Z,1.67
2022-10-06T16:15:54.462Z,2.00
2022-10-06T16:18:41.426Z,2.10
2022-10-06T16:21:31.076Z,1.87
2022-10-06T16:24:19.063Z,2.27
2022-10-06T16:27:06.263Z,1.83
2022-10-06T16:29:52.949Z,2.10
2022-10-06T16:32:40.509Z,2.20
2022-10-06T16:35:27.751Z,1.93
2022-10-06T16:38:15.812Z,2.20
2022-10-06T16:41:03.375Z,1.60
2022-10-06T16:43:51.695Z,2.20
2022-10-06T16:46:38.752Z,2.27
2022-10-06T16:49:27.215Z,2.67
2022-10-06T16:52:14.007Z,1.70
2022-10-06T16:55:02.797Z,2.23
2022-10-06T16:57:49.489Z,2.67
2022-10-06T17:00:36.777Z,2.80
2022-10-06T17:03:23.696Z,2.30
2022-10-06T17:06:12.923Z,2.57
2022-10-06T17:08:59.869Z,2.50
2022-10-06T17:11:49.011Z,2.83
2022-10-06T17:14:36.276Z,2.57
2022-10-06T17:17:23.485Z,2.80
2022-10-06T17:20:10.804Z,2.17
2022-10-06T17:22:57.803Z,3.10
2022-10-06T17:25:45.250Z,3.03
2022-10-06T17:28:34.026Z,3.43
2022-10-06T17:31:22.681Z,2.97
2022-10-06T17:34:12.030Z,2.97
2022-10-06T17:36:59.450Z,2.80
2022-10-06T17:39:47.324Z,3.10
2022-10-06T17:42:35.597Z,3.10
2022-10-06T17:45:24.968Z,3.00
2022-10-06T17:48:12.288Z,2.70
2022-10-06T17:51:00.257Z,2.83
2022-10-06T17:53:48.079Z,2.93
2022-10-06T17:56:36.123Z,3.50
2022-10-06T17:59:23.593Z,3.13
2022-10-06T18:02:13.487Z,4.60
2022-10-06T18:05:00.355Z,4.57
2022-10-06T18:07:47.431Z,6.40
2022-10-06T18:10:52.740Z,4.23
2022-10-06T18:13:42.384Z,3.73
2022-10-06T18:16:31.288Z,3.73
2022-10-06T18:19:25.413Z,3.20
2022-10-06T18:22:13.023Z,3.07
2022-10-06T18:25:01.491Z,3.03
2022-10-06T18:27:49.023Z,3.50
2022-10-06T18:30:36.082Z,3.60
2022-10-06T18:36:31.756Z,4.23
2022-10-06T18:39:18.537Z,4.30
2022-10-06T18:42:07.396Z,3.50
2022-10-06T18:45:11.529Z,3.57
2022-10-06T18:48:16.344Z,3.77
2022-10-06T18:51:03.996Z,3.37
2022-10-06T18:53:54.723Z,3.47
2022-10-06T18:56:41.477Z,3.13
2022-10-06T18:59:31.112Z,3.63
2022-10-06T19:02:18.268Z,2.90
2022-10-06T19:05:05.351Z,3.27
2022-10-06T19:07:53.955Z,3.83
2022-10-06T19:11:02.355Z,4.00
2022-10-06T19:13:51.883Z,9.10
2022-10-06T19:16:39.117Z,7.07
2022-10-06T19:19:27.074Z,3.80
2022-10-06T19:22:16.127Z,3.50
2022-10-06T19:25:02.849Z,4.13
2022-10-06T19:27:51.271Z,3.57
2022-10-06T19:30:38.751Z,3.27
2022-10-06T19:33:26.731Z,3.33
2022-10-06T19:36:14.054Z,3.97
2022-10-06T19:39:03.543Z,3.67
2022-10-06T19:42:09.126Z,4.03
2022-10-06T19:44:57.434Z,3.73
2022-10-06T19:47:46.336Z,3.80
2022-10-06T19:50:33.898Z,3.90
2022-10-06T19:53:21.526Z,3.73
2022-10-06T19:56:08.987Z,3.50
2022-10-06T19:58:56.364Z,3.23
2022-10-06T20:01:45.372Z,3.40
2022-10-06T20:04:32.807Z,3.63
2022-10-06T20:07:21.675Z,3.67
2022-10-06T20:10:09.681Z,4.37
2022-10-06T20:12:58.700Z,6.57
2022-10-06T20:15:45.679Z,7.43
2022-10-06T20:18:39.814Z,4.47
2022-10-06T20:21:30.903Z,3.80
2022-10-06T20:24:19.928Z,4.13
2022-10-06T20:27:06.860Z,3.70
2022-10-06T20:29:54.983Z,4.03
2022-10-06T20:32:42.345Z,3.73
2022-10-06T20:35:30.828Z,3.67
2022-10-06T20:38:37.893Z,3.90
2022-10-06T20:41:24.527Z,4.70
2022-10-06T20:44:11.867Z,3.53
2022-10-06T20:46:59.184Z,3.80
2022-10-06T20:49:46.373Z,3.13
2022-10-06T20:52:34.748Z,4.00
2022-10-06T20:55:22.198Z,3.37
2022-10-06T20:58:09.637Z,4.07
2022-10-06T21:00:56.392Z,4.50
2022-10-06T21:03:46.342Z,4.27
2022-10-06T21:06:33.517Z,4.27
2022-10-06T21:09:22.714Z,4.47
2022-10-06T21:12:09.823Z,3.70
2022-10-06T21:14:57.286Z,4.13
2022-10-06T21:17:46.521Z,3.10
2022-10-06T21:20:35.175Z,3.60
2022-10-06T21:23:21.855Z,3.90
2022-10-06T21:26:13.392Z,3.60
2022-10-06T21:29:00.362Z,4.13
2022-10-06T21:31:47.885Z,3.30
2022-10-06T21:34:35.196Z,3.90
2022-10-06T21:37:22.183Z,4.17
2022-10-06T21:40:09.560Z,3.60
2022-10-06T21:42:57.591Z,3.83
2022-10-06T21:45:47.612Z,3.30
2022-10-06T21:48:34.608Z,3.27
2022-10-06T21:51:23.080Z,3.53
2022-10-06T21:54:11.012Z,4.10
2022-10-06T21:56:59.076Z,3.70
2022-10-06T21:59:47.906Z,3.37
2022-10-06T22:02:35.210Z,3.00
2022-10-06T22:05:22.752Z,3.63
2022-10-06T22:08:09.839Z,4.17
2022-10-06T22:10:56.947Z,3.03
2022-10-06T22:13:47.403Z,3.33
2022-10-06T22:16:36.342Z,3.90
2022-10-06T22:19:22.999Z,3.47
2022-10-06T22:22:10.038Z,3.93
2022-10-06T22:24:57.318Z,4.43
2022-10-06T22:27:44.584Z,3.60
2022-10-06T22:30:31.934Z,3.43
2022-10-06T22:33:22.604Z,3.40
2022-10-06T22:36:12.530Z,3.80
2022-10-06T22:38:59.515Z,3.53
2022-10-06T22:41:46.490Z,4.03
2022-10-06T22:44:33.227Z,3.63
2022-10-06T22:47:20.357Z,3.90
2022-10-06T22:50:09.354Z,4.10
2022-10-06T22:52:56.430Z,3.23
2022-10-06T22:55:43.593Z,3.20
2022-10-06T22:58:30.908Z,3.50
2022-10-06T23:01:19.496Z,3.33
2022-10-06T23:04:06.425Z,3.37
2022-10-06T23:06:54.975Z,3.17
2022-10-06T23:09:42.067Z,3.27
2022-10-06T23:12:28.806Z,2.73
2022-10-06T23:15:15.879Z,3.43
2022-10-06T23:18:03.885Z,3.83
2022-10-06T23:20:50.750Z,3.50
2022-10-06T23:23:38.937Z,3.47
2022-10-06T23:26:26.529Z,3.63
2022-10-06T23:29:13.820Z,3.93
2022-10-06T23:32:00.753Z,3.30
2022-10-06T23:34:47.561Z,3.20
2022-10-06T23:37:35.172Z,3.93
2022-10-06T23:40:23.961Z,3.57
2022-10-06T23:43:11.154Z,4.17
2022-10-06T23:45:58.188Z,4.13
2022-10-06T23:48:45.535Z,4.00
2022-10-06T23:51:32.167Z,4.27
2022-10-06T23:54:19.211Z,4.07
2022-10-06T23:57:07.787Z,4.00
2022-10-06T23:59:54.639Z,4.07
